createdAt,value
2022-09-06T00:02:19.399Z,2.33
2022-09-06T00:04:46.129Z,1.90
2022-09-06T00:07:12.809Z,2.47
2022-09-06T00:09:39.512Z,2.30
2022-09-06T00:12:06.452Z,2.17
2022-09-06T00:14:33.219Z,2.27
2022-09-06T00:17:00.827Z,2.03
2022-09-06T00:19:27.854Z,2.10
2022-09-06T00:21:54.553Z,2.43
2022-09-06T00:24:21.190Z,2.40
2022-09-06T00:26:47.876Z,2.03
2022-09-06T00:29:14.722Z,2.37
2022-09-06T00:31:41.387Z,2.00
2022-09-06T00:34:08.055Z,2.40
2022-09-06T00:36:34.828Z,2.10
2022-09-06T00:39:01.624Z,2.67
2022-09-06T00:41:28.397Z,2.30
2022-09-06T00:43:55.164Z,1.90
2022-09-06T00:46:26.607Z,2.30
2022-09-06T00:49:10.901Z,2.20
2022-09-06T00:51:38.058Z,2.17
2022-09-06T00:54:06.668Z,2.17
2022-09-06T00:56:37.861Z,2.40
2022-09-06T00:59:04.664Z,2.17
2022-09-06T01:01:31.417Z,2.30
2022-09-06T01:03:58.306Z,2.60
2022-09-06T01:06:47.764Z,2.93
2022-09-06T01:09:42.195Z,2.30
2022-09-06T01:12:14.200Z,2.27
2022-09-06T01:15:06.675Z,2.40
2022-09-06T01:17:45.408Z,2.43
2022-09-06T01:20:42.896Z,2.60
2022-09-06T01:23:52.361Z,2.10
2022-09-06T01:26:41.194Z,2.23
2022-09-06T01:29:33.669Z,2.53
2022-09-06T01:32:26.122Z,2.53
2022-09-06T01:35:22.396Z,2.63
2022-09-06T01:37:49.229Z,2.40
2022-09-06T01:40:16.061Z,2.63
2022-09-06T01:42:46.570Z,2.67
2022-09-06T01:45:20.355Z,2.20
2022-09-06T01:47:52.059Z,2.77
2022-09-06T01:50:22.010Z,1.97
2022-09-06T01:53:21.747Z,2.03
2022-09-06T01:55:58.799Z,2.60
2022-09-06T01:58:52.206Z,2.20
2022-09-06T02:01:38.433Z,2.50
2022-09-06T02:04:21.213Z,2.43
2022-09-06T02:06:54.831Z,2.50
2022-09-06T02:09:25.359Z,2.30
2022-09-06T02:11:56.560Z,2.37
2022-09-06T02:14:31.785Z,2.30
2022-09-06T02:16:59.874Z,2.60
2022-09-06T02:19:59.086Z,2.57
2022-09-06T02:22:29.904Z,2.57
2022-09-06T02:24:58.736Z,2.47
2022-09-06T02:27:25.742Z,2.50
2022-09-06T02:29:52.494Z,2.47
2022-09-06T02:32:24.371Z,2.33
2022-09-06T02:34:54.269Z,2.57
2022-09-06T02:37:22.796Z,2.50
2022-09-06T02:39:49.567Z,2.13
2022-09-06T02:42:17.504Z,2.80
2022-09-06T02:44:44.237Z,2.70
2022-09-06T02:47:10.937Z,2.43
2022-09-06T02:49:37.628Z,3.70
2022-09-06T02:52:04.537Z,3.17
2022-09-06T02:54:31.326Z,2.40
2022-09-06T02:56:58.071Z,2.57
2022-09-06T02:59:24.756Z,2.20
2022-09-06T03:01:51.866Z,3.03
2022-09-06T03:04:18.515Z,2.70
2022-09-06T03:06:45.506Z,2.43
2022-09-06T03:09:12.157Z,2.50
2022-09-06T03:11:38.861Z,2.87
2022-09-06T03:14:05.628Z,2.60
2022-09-06T03:16:32.344Z,3.10
2022-09-06T03:18:59.041Z,3.30
2022-09-06T03:21:25.724Z,2.60
2022-09-06T03:23:52.524Z,2.70
2022-09-06T03:26:19.262Z,2.90
2022-09-06T03:28:46.117Z,2.40
2022-09-06T03:31:12.964Z,2.70
2022-09-06T03:33:39.827Z,2.70
2022-09-06T03:36:06.823Z,2.50
2022-09-06T03:38:33.525Z,2.47
2022-09-06T03:41:00.294Z,2.30
2022-09-06T03:43:27.385Z,2.10
2022-09-06T03:45:57.702Z,3.00
2022-09-06T03:48:27.469Z,2.83
2022-09-06T03:50:56.767Z,2.60
2022-09-06T03:53:24.943Z,2.63
2022-09-06T03:55:54.268Z,2.77
2022-09-06T03:58:23.320Z,2.33
2022-09-06T04:00:59.317Z,2.50
2022-09-06T04:03:26.095Z,2.83
2022-09-06T04:05:52.750Z,2.63
2022-09-06T04:08:19.374Z,2.93
2022-09-06T04:10:49.150Z,2.50
2022-09-06T04:13:15.834Z,2.50
2022-09-06T04:15:47.285Z,2.70
2022-09-06T04:18:14.578Z,2.80
2022-09-06T04:20:41.683Z,2.53
2022-09-06T04:23:08.821Z,2.63
2022-09-06T04:25:35.566Z,2.60
2022-09-06T04:28:02.489Z,2.70
2022-09-06T04:30:29.170Z,2.77
2022-09-06T04:32:55.898Z,2.10
2022-09-06T04:35:23.015Z,2.30
2022-09-06T04:37:49.706Z,2.07
2022-09-06T04:40:16.432Z,2.20
2022-09-06T04:42:43.088Z,2.67
2022-09-06T04:45:10.358Z,2.37
2022-09-06T04:47:37.030Z,2.80
2022-09-06T04:50:04.194Z,2.70
2022-09-06T04:52:30.834Z,2.33
2022-09-06T04:54:57.542Z,2.30
2022-09-06T04:57:24.250Z,3.17
2022-09-06T04:59:50.890Z,2.87
2022-09-06T05:02:17.615Z,3.00
2022-09-06T05:04:44.271Z,2.60
2022-09-06T05:07:10.937Z,2.43
2022-09-06T05:09:37.585Z,2.67
2022-09-06T05:12:04.690Z,2.90
2022-09-06T05:14:31.338Z,2.47
2022-09-06T05:16:58.182Z,3.10
2022-09-06T05:19:25.394Z,2.60
2022-09-06T05:21:52.393Z,2.70
2022-09-06T05:24:19.212Z,3.20
2022-09-06T05:26:45.917Z,2.60
2022-09-06T05:29:12.621Z,2.73
2022-09-06T05:31:39.536Z,2.70
2022-09-06T05:34:06.302Z,2.60
2022-09-06T05:36:33.307Z,2.83
2022-09-06T05:39:00.300Z,2.50
2022-09-06T05:41:27.272Z,2.80
2022-09-06T05:43:54.120Z,3.00
2022-09-06T05:46:21.326Z,2.70
2022-09-06T05:48:55.880Z,3.40
2022-09-06T05:51:22.565Z,3.50
2022-09-06T05:53:49.350Z,3.20
2022-09-06T05:56:16.945Z,3.20
2022-09-06T05:58:43.700Z,2.97
2022-09-06T06:01:22.148Z,3.20
2022-09-06T06:04:00.408Z,3.00
2022-09-06T06:06:30.454Z,2.80
2022-09-06T06:08:57.415Z,3.17
2022-09-06T06:11:25.859Z,3.03
2022-09-06T06:13:53.286Z,3.20
2022-09-06T06:16:22.361Z,2.90
2022-09-06T06:18:52.194Z,2.70
2022-09-06T06:21:29.030Z,3.00
2022-09-06T06:23:58.389Z,3.63
2022-09-06T06:26:26.450Z,3.30
2022-09-06T06:28:53.556Z,3.10
2022-09-06T06:31:22.416Z,3.13
2022-09-06T06:33:49.648Z,3.57
2022-09-06T06:36:16.377Z,3.30
2022-09-06T06:38:45.062Z,3.67
2022-09-06T06:41:14.413Z,4.67
2022-09-06T06:43:41.527Z,4.20
2022-09-06T06:46:09.674Z,4.17
2022-09-06T06:48:37.492Z,3.40
2022-09-06T06:51:04.223Z,3.73
2022-09-06T06:53:30.967Z,3.60
2022-09-06T06:55:57.643Z,3.90
2022-09-06T06:58:24.622Z,3.57
2022-09-06T07:00:51.407Z,4.20
2022-09-06T07:03:18.448Z,3.50
2022-09-06T07:08:33.717Z,3.00
2022-09-06T07:11:00.612Z,3.63
2022-09-06T07:13:27.347Z,3.40
2022-09-06T07:16:07.490Z,3.53
2022-09-06T07:18:34.736Z,3.63
2022-09-06T07:26:36.346Z,3.03
2022-09-06T07:29:05.216Z,3.00
2022-09-06T07:34:20.446Z,2.90
2022-09-06T07:36:47.328Z,2.97
2022-09-06T07:39:14.156Z,2.50
2022-09-06T07:41:40.819Z,2.27
2022-09-06T07:44:07.467Z,2.30
2022-09-06T07:46:34.477Z,3.47
2022-09-06T07:49:03.619Z,2.70
2022-09-06T07:51:30.374Z,2.70
2022-09-06T07:54:13.208Z,2.40
2022-09-06T07:56:43.662Z,2.50
2022-09-06T07:59:10.314Z,2.30
2022-09-06T08:01:40.503Z,2.30
2022-09-06T08:04:15.629Z,2.07
2022-09-06T08:09:32.807Z,2.40
2022-09-06T08:11:59.517Z,2.10
2022-09-06T08:14:26.173Z,1.60
2022-09-06T08:16:52.889Z,2.30
2022-09-06T08:19:19.588Z,2.13
2022-09-06T08:21:46.251Z,2.27
2022-09-06T08:24:12.971Z,2.37
2022-09-06T08:26:42.301Z,2.17
2022-09-06T08:29:10.826Z,2.60
2022-09-06T08:31:40.701Z,2.60
2022-09-06T08:34:08.125Z,2.10
2022-09-06T08:36:35.473Z,2.33
2022-09-06T08:39:05.300Z,2.00
2022-09-06T08:42:00.659Z,1.90
2022-09-06T08:44:58.019Z,2.10
2022-09-06T08:47:25.479Z,1.70
2022-09-06T08:50:02.281Z,1.93
2022-09-06T08:53:15.604Z,2.30
2022-09-06T08:56:04.269Z,2.00
2022-09-06T08:58:59.384Z,2.00
2022-09-06T09:01:36.162Z,2.67
2022-09-06T09:04:05.389Z,1.80
2022-09-06T09:06:33.378Z,2.67
2022-09-06T09:09:13.233Z,1.73
2022-09-06T09:11:45.635Z,1.80
2022-09-06T09:14:26.676Z,2.23
2022-09-06T09:16:56.428Z,2.27
2022-09-06T09:19:23.069Z,1.80
2022-09-06T09:21:49.805Z,1.90
2022-09-06T09:24:16.543Z,2.10
2022-09-06T09:26:57.491Z,1.73
2022-09-06T09:29:28.629Z,1.87
2022-09-06T09:31:57.472Z,2.00
2022-09-06T09:34:33.763Z,1.33
2022-09-06T09:40:17.534Z,2.23
2022-09-06T09:42:44.559Z,2.20
2022-09-06T09:45:20.427Z,1.53
2022-09-06T09:47:47.149Z,1.50
2022-09-06T09:50:32.670Z,1.70
2022-09-06T09:53:15.247Z,1.47
2022-09-06T09:55:42.843Z,2.10
2022-09-06T09:58:36.537Z,1.50
2022-09-06T10:01:22.896Z,1.83
2022-09-06T10:09:36.109Z,1.40
2022-09-06T10:12:03.292Z,1.80
2022-09-06T10:14:39.561Z,1.50
2022-09-06T10:17:06.573Z,1.80
2022-09-06T10:19:45.703Z,1.30
2022-09-06T10:22:32.007Z,1.70
2022-09-06T10:25:32.242Z,1.70
2022-09-06T10:28:39.012Z,1.50
2022-09-06T10:31:36.896Z,1.50
2022-09-06T10:34:41.606Z,2.00
2022-09-06T10:37:45.061Z,1.67
2022-09-06T10:40:17.798Z,1.53
2022-09-06T10:42:50.585Z,1.43
2022-09-06T10:45:23.269Z,1.40
2022-09-06T10:48:14.931Z,1.43
2022-09-06T10:51:18.925Z,1.43
2022-09-06T10:54:07.165Z,1.40
2022-09-06T10:56:45.381Z,1.30
2022-09-06T10:59:40.640Z,1.80
2022-09-06T11:02:45.523Z,1.40
2022-09-06T11:08:46.333Z,1.20
2022-09-06T11:11:19.664Z,1.20
2022-09-06T11:13:47.268Z,1.67
2022-09-06T11:16:21.819Z,1.53
2022-09-06T11:19:07.773Z,1.60
2022-09-06T11:22:09.361Z,1.33
2022-09-06T11:25:38.139Z,1.40
2022-09-06T11:28:10.298Z,1.40
2022-09-06T11:30:37.446Z,1.40
2022-09-06T11:33:24.132Z,1.30
2022-09-06T11:35:51.742Z,1.37
2022-09-06T11:38:23.710Z,1.43
2022-09-06T11:40:58.315Z,1.30
2022-09-06T11:43:48.640Z,1.30
2022-09-06T11:46:33.557Z,1.30
2022-09-06T11:49:06.754Z,1.30
2022-09-06T11:51:40.674Z,1.20
2022-09-06T11:54:44.956Z,1.30
2022-09-06T11:57:16.045Z,1.17
2022-09-06T11:59:54.720Z,1.70
2022-09-06T12:02:35.223Z,1.47
2022-09-06T12:05:03.801Z,1.30
2022-09-06T12:07:31.872Z,1.30
2022-09-06T12:10:02.515Z,1.20
2022-09-06T12:12:52.401Z,1.40
2022-09-06T12:15:29.986Z,0.97
2022-09-06T12:17:58.454Z,1.20
2022-09-06T12:20:53.006Z,1.30
2022-09-06T12:23:34.929Z,1.40
2022-09-06T12:26:03.626Z,1.20
2022-09-06T12:28:42.860Z,1.10
2022-09-06T12:31:31.100Z,0.83
2022-09-06T12:33:58.958Z,0.90
2022-09-06T12:36:30.300Z,0.97
2022-09-06T12:39:03.765Z,1.00
2022-09-06T12:41:38.388Z,0.90
2022-09-06T12:44:08.915Z,0.80
2022-09-06T12:46:36.838Z,1.03
2022-09-06T12:49:12.040Z,0.90
2022-09-06T12:51:40.805Z,0.80
2022-09-06T12:54:23.260Z,1.27
2022-09-06T12:56:51.510Z,1.00
2022-09-06T12:59:24.509Z,1.17
2022-09-06T13:02:00.552Z,0.80
2022-09-06T13:04:35.021Z,1.00
2022-09-06T13:07:04.259Z,0.90
2022-09-06T13:09:31.609Z,0.90
2022-09-06T13:12:08.426Z,0.90
2022-09-06T13:14:35.734Z,0.93
2022-09-06T13:17:02.732Z,0.90
2022-09-06T13:19:38.251Z,1.33
2022-09-06T13:22:10.999Z,0.90
2022-09-06T13:24:49.766Z,1.10
2022-09-06T13:27:31.484Z,1.10
2022-09-06T13:30:07.247Z,0.80
2022-09-06T13:32:35.489Z,0.80
2022-09-06T13:35:03.811Z,0.90
2022-09-06T13:37:33.821Z,0.90
2022-09-06T13:40:05.039Z,0.80
2022-09-06T13:42:33.260Z,0.83
2022-09-06T13:45:27.630Z,1.00
2022-09-06T13:48:03.478Z,0.90
2022-09-06T13:50:41.818Z,0.80
2022-09-06T13:53:08.632Z,0.80
2022-09-06T13:55:35.322Z,0.70
2022-09-06T13:58:01.958Z,0.80
2022-09-06T14:00:28.655Z,0.80
2022-09-06T14:02:55.670Z,0.80
2022-09-06T14:05:22.491Z,0.93
2022-09-06T14:07:49.145Z,1.00
2022-09-06T14:10:15.974Z,1.00
2022-09-06T14:12:42.657Z,0.90
2022-09-06T14:15:09.958Z,1.03
2022-09-06T14:17:36.702Z,0.80
2022-09-06T14:20:03.980Z,0.77
2022-09-06T14:22:30.840Z,0.83
2022-09-06T14:24:57.596Z,0.80
2022-09-06T14:27:24.336Z,0.83
2022-09-06T14:29:50.993Z,0.90
2022-09-06T14:32:22.529Z,1.30
2022-09-06T14:34:49.545Z,0.80
2022-09-06T14:37:16.253Z,0.87
2022-09-06T14:39:43.102Z,1.00
2022-09-06T14:42:09.893Z,0.80
2022-09-06T14:44:36.542Z,1.10
2022-09-06T14:47:03.430Z,0.80
2022-09-06T14:49:30.103Z,0.80
2022-09-06T14:51:56.853Z,1.00
2022-09-06T14:54:28.573Z,1.10
2022-09-06T14:56:57.191Z,1.13
2022-09-06T14:59:23.985Z,1.17
2022-09-06T15:01:50.825Z,0.90
2022-09-06T15:04:17.986Z,1.00
2022-09-06T15:06:47.188Z,1.10
2022-09-06T15:09:15.449Z,1.10
2022-09-06T15:11:45.068Z,1.10
2022-09-06T15:14:23.423Z,1.00
2022-09-06T15:16:55.931Z,1.00
2022-09-06T15:19:24.716Z,0.90
2022-09-06T15:21:51.606Z,0.90
2022-09-06T15:24:18.784Z,1.13
2022-09-06T15:26:45.468Z,0.90
2022-09-06T15:29:13.472Z,1.00
2022-09-06T15:31:41.891Z,1.00
2022-09-06T15:34:09.727Z,1.03
2022-09-06T15:36:37.621Z,0.90
2022-09-06T15:39:05.720Z,1.10
2022-09-06T15:41:35.569Z,1.10
2022-09-06T15:44:13.207Z,1.90
2022-09-06T15:46:57.547Z,0.97
2022-09-06T15:49:34.381Z,0.80
2022-09-06T15:52:02.556Z,0.87
2022-09-06T15:54:48.067Z,0.90
2022-09-06T15:57:16.448Z,1.17
2022-09-06T15:59:43.683Z,1.00
2022-09-06T16:02:11.162Z,0.90
2022-09-06T16:04:38.000Z,1.10
2022-09-06T16:07:05.960Z,1.30
2022-09-06T16:09:32.915Z,1.10
2022-09-06T16:11:59.596Z,1.00
2022-09-06T16:14:28.075Z,1.20
2022-09-06T16:16:56.300Z,1.27
2022-09-06T16:19:24.086Z,1.30
2022-09-06T16:21:50.759Z,1.47
2022-09-06T16:24:18.564Z,0.97
2022-09-06T16:26:48.653Z,1.30
2022-09-06T16:29:17.924Z,1.10
2022-09-06T16:31:45.393Z,1.07
2022-09-06T16:34:13.226Z,1.33
2022-09-06T16:36:40.196Z,1.20
2022-09-06T16:39:07.931Z,0.90
2022-09-06T16:41:42.657Z,1.17
2022-09-06T16:44:14.433Z,1.47
2022-09-06T16:46:41.723Z,1.30
2022-09-06T16:49:08.981Z,1.23
2022-09-06T16:51:36.042Z,1.00
2022-09-06T16:54:02.927Z,1.13
2022-09-06T16:56:33.502Z,1.13
2022-09-06T16:59:04.126Z,1.50
2022-09-06T17:01:32.197Z,1.20
2022-09-06T17:04:03.872Z,1.37
2022-09-06T17:06:33.027Z,1.43
2022-09-06T17:09:00.005Z,1.50
2022-09-06T17:11:28.554Z,1.30
2022-09-06T17:13:56.600Z,1.10
2022-09-06T17:16:42.426Z,1.40
2022-09-06T17:19:09.926Z,1.40
2022-09-06T17:21:39.122Z,1.23
2022-09-06T17:24:07.391Z,1.30
2022-09-06T17:26:37.142Z,1.53
2022-09-06T17:29:04.669Z,1.40
2022-09-06T17:31:31.722Z,1.00
2022-09-06T17:33:59.683Z,1.60
2022-09-06T17:36:30.342Z,1.33
2022-09-06T17:39:08.949Z,1.33
2022-09-06T17:41:39.318Z,1.40
2022-09-06T17:44:07.662Z,1.40
2022-09-06T17:46:34.300Z,1.30
2022-09-06T17:49:00.946Z,1.30
2022-09-06T17:51:28.130Z,1.37
2022-09-06T17:53:55.668Z,1.40
2022-09-06T17:56:23.147Z,1.70
2022-09-06T17:58:59.632Z,1.20
2022-09-06T18:01:29.557Z,2.03
2022-09-06T18:03:57.414Z,1.10
2022-09-06T18:06:25.958Z,1.30
2022-09-06T18:08:54.856Z,1.33
2022-09-06T18:11:27.033Z,1.67
2022-09-06T18:14:00.410Z,1.90
2022-09-06T18:16:28.480Z,1.50
2022-09-06T18:18:58.180Z,2.00
2022-09-06T18:21:27.043Z,1.50
2022-09-06T18:23:54.807Z,1.30
2022-09-06T18:26:21.939Z,1.80
2022-09-06T18:28:48.627Z,1.30
2022-09-06T18:31:17.928Z,1.93
2022-09-06T18:33:45.104Z,1.80
2022-09-06T18:36:13.337Z,1.97
2022-09-06T18:38:40.692Z,2.33
2022-09-06T18:41:09.206Z,1.63
2022-09-06T18:43:40.485Z,2.00
2022-09-06T18:46:14.617Z,1.77
2022-09-06T18:48:41.422Z,1.50
2022-09-06T18:51:08.805Z,1.53
2022-09-06T18:53:36.199Z,1.90
2022-09-06T18:56:03.033Z,1.70
2022-09-06T18:58:30.067Z,1.60
2022-09-06T19:01:04.439Z,2.00
2022-09-06T19:03:32.265Z,1.70
2022-09-06T19:06:14.008Z,1.60
2022-09-06T19:08:41.135Z,2.13
2022-09-06T19:11:13.262Z,1.50
2022-09-06T19:13:41.741Z,1.80
2022-09-06T19:16:09.984Z,2.07
2022-09-06T19:18:37.724Z,1.90
2022-09-06T19:21:09.884Z,1.60
2022-09-06T19:23:39.612Z,1.70
2022-09-06T19:26:26.849Z,1.83
2022-09-06T19:28:56.201Z,1.40
2022-09-06T19:31:28.345Z,1.90
2022-09-06T19:33:55.756Z,1.73
2022-09-06T19:36:23.597Z,1.77
2022-09-06T19:39:06.267Z,1.43
2022-09-06T19:41:37.831Z,1.73
2022-09-06T19:44:05.885Z,1.80
2022-09-06T19:46:32.896Z,1.40
2022-09-06T19:49:00.474Z,1.60
2022-09-06T19:51:27.311Z,1.60
2022-09-06T19:53:59.826Z,2.40
2022-09-06T19:56:34.671Z,1.57
2022-09-06T19:59:06.814Z,1.80
2022-09-06T20:01:35.244Z,1.67
2022-09-06T20:04:04.545Z,1.93
2022-09-06T20:06:31.799Z,2.20
2022-09-06T20:08:59.821Z,1.87
2022-09-06T20:11:28.956Z,1.77
2022-09-06T20:13:56.291Z,2.13
2022-09-06T20:16:27.247Z,1.60
2022-09-06T20:18:58.937Z,2.00
2022-09-06T20:21:27.137Z,2.10
2022-09-06T20:23:55.432Z,1.90
2022-09-06T20:26:24.000Z,2.57
2022-09-06T20:28:58.946Z,1.90
2022-09-06T20:31:26.567Z,1.77
2022-09-06T20:33:53.506Z,2.10
2022-09-06T20:36:20.652Z,2.20
2022-09-06T20:38:48.146Z,2.00
2022-09-06T20:41:23.654Z,2.37
2022-09-06T20:43:52.605Z,2.20
2022-09-06T20:46:21.528Z,2.30
2022-09-06T20:48:48.689Z,2.73
2022-09-06T20:51:19.319Z,2.23
2022-09-06T20:53:48.516Z,2.50
2022-09-06T20:56:20.189Z,2.00
2022-09-06T20:58:52.179Z,2.37
2022-09-06T21:01:22.820Z,2.33
2022-09-06T21:03:59.336Z,2.53
2022-09-06T21:06:27.953Z,2.33
2022-09-06T21:08:55.692Z,2.40
2022-09-06T21:11:22.949Z,2.30
2022-09-06T21:13:51.455Z,2.10
2022-09-06T21:16:23.927Z,1.97
2022-09-06T21:19:02.770Z,2.23
2022-09-06T21:21:31.453Z,2.13
2022-09-06T21:23:59.878Z,2.40
2022-09-06T21:26:26.579Z,2.30
2022-09-06T21:28:53.517Z,2.80
2022-09-06T21:31:28.977Z,2.90
2022-09-06T21:33:57.527Z,2.43
2022-09-06T21:36:33.853Z,2.67
2022-09-06T21:39:03.452Z,2.23
2022-09-06T21:41:31.074Z,3.20
2022-09-06T21:44:00.161Z,2.93
2022-09-06T21:46:32.915Z,3.80
2022-09-06T21:49:05.410Z,2.60
2022-09-06T21:51:32.546Z,2.83
2022-09-06T21:53:59.677Z,3.30
2022-09-06T21:56:26.573Z,3.10
2022-09-06T21:58:55.707Z,3.80
2022-09-06T22:01:26.893Z,2.83
2022-09-06T22:03:54.181Z,3.63
2022-09-06T22:06:26.465Z,2.50
2022-09-06T22:08:53.960Z,2.20
2022-09-06T22:11:21.933Z,2.90
2022-09-06T22:13:49.860Z,3.10
2022-09-06T22:16:19.050Z,2.43
2022-09-06T22:18:46.920Z,2.77
2022-09-06T22:21:18.590Z,2.80
2022-09-06T22:23:57.625Z,3.10
2022-09-06T22:26:26.577Z,3.47
2022-09-06T22:28:58.527Z,3.20
2022-09-06T22:31:26.958Z,3.30
2022-09-06T22:33:54.665Z,3.13
2022-09-06T22:36:23.314Z,2.50
2022-09-06T22:38:53.097Z,3.10
2022-09-06T22:41:19.839Z,3.50
2022-09-06T22:43:46.482Z,2.97
2022-09-06T22:46:13.459Z,4.17
2022-09-06T22:48:40.328Z,2.93
2022-09-06T22:51:07.201Z,3.40
2022-09-06T22:53:34.361Z,2.70
2022-09-06T22:56:01.541Z,3.07
2022-09-06T22:58:28.456Z,3.10
2022-09-06T23:00:56.506Z,3.10
2022-09-06T23:03:23.433Z,3.10
2022-09-06T23:05:50.111Z,3.20
2022-09-06T23:08:16.881Z,2.67
2022-09-06T23:10:44.201Z,3.30
2022-09-06T23:13:11.315Z,2.93
2022-09-06T23:15:40.717Z,3.10
2022-09-06T23:18:08.397Z,2.73
2022-09-06T23:20:37.182Z,3.37
2022-09-06T23:23:08.256Z,2.77
2022-09-06T23:25:38.833Z,2.90
2022-09-06T23:28:05.735Z,3.30
2022-09-06T23:30:32.433Z,2.77
2022-09-06T23:32:59.089Z,2.30
2022-09-06T23:35:25.772Z,3.10
2022-09-06T23:37:53.419Z,3.03
2022-09-06T23:40:20.299Z,2.93
2022-09-06T23:42:47.645Z,2.97
2022-09-06T23:45:14.648Z,4.53
2022-09-06T23:47:41.596Z,2.83
2022-09-06T23:50:09.019Z,3.20
2022-09-06T23:52:35.896Z,2.53
2022-09-06T23:55:03.086Z,2.77
2022-09-06T23:57:30.010Z,2.90
2022-09-06T23:59:56.699Z,2.60
